createdAt,value
2024-05-09T00:01:43.081Z,4.5
2024-05-09T00:06:49.228Z,4.6
2024-05-09T00:11:55.527Z,4.6
2024-05-09T00:17:01.787Z,4.5
2024-05-09T00:22:08.089Z,4.5
2024-05-09T00:27:14.386Z,4.5
2024-05-09T00:32:20.621Z,4.5
2024-05-09T00:37:26.872Z,4.5
2024-05-09T00:42:33.160Z,4.8
2024-05-09T00:47:39.443Z,4.9
2024-05-09T00:52:45.727Z,5
2024-05-09T00:57:51.975Z,5.2
2024-05-09T01:02:58.262Z,5.3
2024-05-09T01:08:04.650Z,5.4
2024-05-09T01:13:10.780Z,5.5
2024-05-09T01:18:17.044Z,5.6
2024-05-09T01:23:23.437Z,5.8
2024-05-09T01:28:29.621Z,5.9
2024-05-09T01:33:35.883Z,6
2024-05-09T01:38:43.162Z,6.3
2024-05-09T01:43:48.425Z,6.4
2024-05-09T01:48:54.708Z,6.4
2024-05-09T01:54:00.988Z,6.5
2024-05-09T01:59:07.247Z,6.6
2024-05-09T02:04:13.552Z,6.6
2024-05-09T02:09:19.805Z,6.7
2024-05-09T02:14:26.086Z,6.6
2024-05-09T02:19:32.340Z,6.6
2024-05-09T02:24:38.627Z,6.6
2024-05-09T02:29:44.921Z,6.5
2024-05-09T02:34:51.170Z,6.5
2024-05-09T02:39:57.443Z,6.4
2024-05-09T02:45:03.724Z,6.4
2024-05-09T02:50:10.014Z,6.5
2024-05-09T02:55:16.275Z,6.4
2024-05-09T03:00:22.557Z,6.5
2024-05-09T03:05:28.804Z,6.3
2024-05-09T03:10:35.081Z,6.2
2024-05-09T03:15:41.380Z,6
2024-05-09T03:20:47.634Z,5.7
2024-05-09T03:25:53.893Z,5.5
2024-05-09T03:31:00.191Z,5.5
2024-05-09T03:36:06.485Z,5.4
2024-05-09T03:41:12.722Z,5.4
2024-05-09T03:46:19.126Z,5.6
2024-05-09T03:51:25.895Z,5.8
2024-05-09T03:56:31.578Z,5.8
2024-05-09T04:01:37.817Z,5.9
2024-05-09T04:06:44.118Z,6.2
2024-05-09T04:11:50.389Z,6.6
2024-05-09T04:16:56.651Z,6.9
2024-05-09T04:22:02.931Z,7.2
2024-05-09T04:27:09.268Z,7.4
2024-05-09T04:32:15.464Z,7.5
2024-05-09T04:42:28.082Z,9.1
2024-05-09T04:47:34.291Z,9.4
2024-05-09T04:52:40.571Z,9.2
2024-05-09T04:57:46.820Z,9.3
2024-05-09T05:02:53.104Z,10
2024-05-09T05:07:59.395Z,10.1
2024-05-09T05:13:05.637Z,10.5
2024-05-09T05:18:11.921Z,10.9
2024-05-09T05:23:18.148Z,11
2024-05-09T05:28:24.403Z,11.1
2024-05-09T05:33:30.688Z,11.4
2024-05-09T05:38:36.893Z,11.5
2024-05-09T05:43:43.250Z,11.6
2024-05-09T05:48:49.394Z,11.6
2024-05-09T05:53:55.716Z,12.3
2024-05-09T05:59:01.924Z,12.6
2024-05-09T06:04:08.171Z,13.1
2024-05-09T06:09:14.418Z,13.9
2024-05-09T06:14:20.667Z,16.1
2024-05-09T06:19:26.912Z,17.1
2024-05-09T06:24:33.187Z,16.5
2024-05-09T06:29:39.434Z,16.2
2024-05-09T06:34:45.849Z,16.9
2024-05-09T06:39:52.024Z,16.3
2024-05-09T06:44:58.225Z,16.3
2024-05-09T06:50:04.582Z,15.2
2024-05-09T06:55:10.735Z,15.6
2024-05-09T07:00:17.024Z,15.8
2024-05-09T07:05:23.267Z,16.1
2024-05-09T07:10:29.548Z,16.3
2024-05-09T07:15:35.896Z,16.7
2024-05-09T07:20:42.047Z,17.3
2024-05-09T07:25:48.442Z,16.8
2024-05-09T07:30:54.736Z,17.1
2024-05-09T07:36:00.839Z,17.3
2024-05-09T07:41:07.067Z,18
2024-05-09T07:46:13.339Z,17.4
2024-05-09T07:51:19.588Z,16.9
2024-05-09T07:56:25.917Z,17.1
2024-05-09T08:01:32.205Z,17.5
2024-05-09T08:06:38.351Z,18
2024-05-09T08:11:44.607Z,17.4
2024-05-09T08:16:50.882Z,17.5
2024-05-09T08:21:57.177Z,17.6
2024-05-09T08:27:03.433Z,18
2024-05-09T08:32:09.735Z,17.6
2024-05-09T08:37:15.984Z,17.5
2024-05-09T08:42:22.255Z,17.9
2024-05-09T08:47:28.517Z,18.8
2024-05-09T08:52:34.953Z,18.1
2024-05-09T08:57:41.109Z,18.4
2024-05-09T09:02:47.383Z,18.7
2024-05-09T09:07:53.649Z,18.3
2024-05-09T09:12:59.900Z,18.3
2024-05-09T09:18:06.155Z,18.5
2024-05-09T09:23:12.384Z,18.6
2024-05-09T09:28:18.648Z,19.4
2024-05-09T09:33:24.903Z,19.4
2024-05-09T09:38:31.174Z,19.7
2024-05-09T09:43:37.459Z,19.5
2024-05-09T09:48:43.684Z,19.4
2024-05-09T09:53:49.948Z,19.5
2024-05-09T09:58:56.169Z,19.4
2024-05-09T10:04:02.495Z,19.1
2024-05-09T10:09:08.693Z,19.3
2024-05-09T10:14:15.034Z,19.5
2024-05-09T10:19:21.204Z,20.3
2024-05-09T10:24:27.645Z,19.9
2024-05-09T10:29:34.038Z,19.8
2024-05-09T10:34:40.098Z,20.2
2024-05-09T10:39:46.371Z,19.8
2024-05-09T10:44:52.533Z,19.3
2024-05-09T10:49:58.769Z,19.4
2024-05-09T10:55:05.064Z,19
2024-05-09T11:00:11.304Z,19.4
2024-05-09T11:05:17.977Z,19.7
2024-05-09T11:10:23.964Z,19.7
2024-05-09T11:15:30.171Z,20.3
2024-05-09T11:20:36.367Z,19.6
2024-05-09T11:25:42.635Z,19.7
2024-05-09T11:30:48.915Z,20.4
2024-05-09T11:35:55.318Z,20.6
2024-05-09T11:41:01.406Z,21.1
2024-05-09T11:46:07.683Z,20
2024-05-09T11:51:13.922Z,20.2
2024-05-09T11:56:20.215Z,20.2
2024-05-09T12:01:26.478Z,20.2
2024-05-09T12:06:32.775Z,19.9
2024-05-09T12:11:38.996Z,20.2
2024-05-09T12:16:45.275Z,20
2024-05-09T12:21:51.567Z,20.1
2024-05-09T12:26:57.817Z,20.5
2024-05-09T12:32:04.095Z,20
2024-05-09T12:37:10.400Z,20.4
2024-05-09T12:42:16.635Z,20.5
2024-05-09T12:47:22.890Z,20.8
2024-05-09T12:52:29.123Z,20.6
2024-05-09T12:57:35.406Z,20.6
2024-05-09T13:02:41.721Z,21.2
2024-05-09T13:07:47.921Z,20.4
2024-05-09T13:12:54.206Z,20.6
2024-05-09T13:18:00.462Z,20.5
2024-05-09T13:23:06.806Z,20.3
2024-05-09T13:28:13.007Z,20.6
2024-05-09T13:33:19.237Z,20.9
2024-05-09T13:38:25.487Z,20.8
2024-05-09T13:43:31.754Z,21
2024-05-09T13:48:38.009Z,21.3
2024-05-09T13:53:44.261Z,21.5
2024-05-09T13:58:50.547Z,21.6
2024-05-09T14:03:56.854Z,21.6
2024-05-09T14:09:03.147Z,20.6
2024-05-09T14:14:09.356Z,21
2024-05-09T14:19:15.876Z,21.4
2024-05-09T14:24:21.899Z,20.6
2024-05-09T14:29:28.158Z,20.5
2024-05-09T14:34:34.539Z,20.8
2024-05-09T14:39:40.699Z,20.9
2024-05-09T14:44:46.963Z,21.1
2024-05-09T14:49:53.234Z,20.8
2024-05-09T14:54:59.530Z,21.1
2024-05-09T15:00:05.868Z,21
2024-05-09T15:05:12.090Z,21.1
2024-05-09T15:10:18.295Z,21.3
2024-05-09T15:15:24.565Z,20.8
2024-05-09T15:20:30.821Z,21.3
2024-05-09T15:25:37.084Z,20.5
2024-05-09T15:30:43.370Z,20.5
2024-05-09T15:35:49.651Z,20.8
2024-05-09T15:40:55.904Z,20.7
2024-05-09T15:46:02.197Z,20.4
2024-05-09T15:51:08.530Z,20.4
2024-05-09T15:56:14.931Z,20.2
2024-05-09T16:01:21.230Z,20.1
2024-05-09T16:06:27.332Z,20.2
2024-05-09T16:11:33.537Z,20.1
2024-05-09T16:16:39.836Z,19.9
2024-05-09T16:21:46.155Z,19.7
2024-05-09T16:26:52.422Z,19.6
2024-05-09T16:31:58.688Z,19.4
2024-05-09T16:37:04.823Z,19.2
2024-05-09T16:42:11.104Z,19.1
2024-05-09T16:47:17.369Z,19.1
2024-05-09T16:52:23.631Z,19
2024-05-09T16:57:29.912Z,18.8
2024-05-09T17:02:36.135Z,19
2024-05-09T17:07:42.385Z,19.1
2024-05-09T17:12:48.647Z,18.8
2024-05-09T17:17:54.883Z,18.6
2024-05-09T17:23:01.157Z,18.5
2024-05-09T17:28:07.424Z,18.2
2024-05-09T17:33:13.692Z,17.9
2024-05-09T17:38:19.959Z,17.6
2024-05-09T17:43:26.445Z,17.5
2024-05-09T17:48:32.438Z,17.4
2024-05-09T17:53:38.904Z,17.3
2024-05-09T17:58:45.055Z,17.1
2024-05-09T18:03:51.270Z,16.6
2024-05-09T18:08:57.658Z,16.4
2024-05-09T18:14:03.825Z,16.1
2024-05-09T18:19:10.107Z,15.1
2024-05-09T18:24:16.340Z,14.6
2024-05-09T18:29:22.655Z,14.5
2024-05-09T18:34:28.907Z,14.3
2024-05-09T18:39:35.160Z,14
2024-05-09T18:44:41.397Z,13.8
2024-05-09T18:49:47.719Z,13.3
2024-05-09T18:54:53.925Z,13.1
2024-05-09T19:00:00.169Z,12.8
2024-05-09T19:05:06.488Z,12.5
2024-05-09T19:10:12.732Z,12.4
2024-05-09T19:15:18.963Z,12.1
2024-05-09T19:20:25.264Z,11.9
2024-05-09T19:25:31.544Z,11.7
2024-05-09T19:30:37.785Z,11.5
2024-05-09T19:35:44.058Z,11.3
2024-05-09T19:40:50.283Z,11.1
2024-05-09T19:45:56.578Z,11
2024-05-09T19:51:02.836Z,10.9
2024-05-09T19:56:09.096Z,10.9
2024-05-09T20:01:15.326Z,10.7
2024-05-09T20:06:21.702Z,10.6
2024-05-09T20:11:27.990Z,10.5
2024-05-09T20:16:34.226Z,10.4
2024-05-09T20:21:40.482Z,10.3
2024-05-09T20:26:46.799Z,10.1
2024-05-09T20:31:54.175Z,9.9
2024-05-09T20:36:59.336Z,9.7
2024-05-09T20:42:05.589Z,9.5
2024-05-09T20:47:11.859Z,9.3
2024-05-09T20:52:18.166Z,9.3
2024-05-09T20:57:24.453Z,9.3
2024-05-09T21:02:30.720Z,9.2
2024-05-09T21:07:37.352Z,9.3
2024-05-09T21:12:43.522Z,9.2
2024-05-09T21:22:55.776Z,8.9
2024-05-09T21:28:02.175Z,8.8
2024-05-09T21:33:08.445Z,8.7
2024-05-09T21:38:14.665Z,8.8
2024-05-09T21:43:20.905Z,8.7
2024-05-09T21:48:27.252Z,8.6
2024-05-09T21:53:33.626Z,8.6
2024-05-09T21:58:39.722Z,8.5
2024-05-09T22:03:46.081Z,8.5
2024-05-09T22:08:52.336Z,8.5
2024-05-09T22:13:58.662Z,8.5
2024-05-09T22:19:04.866Z,8.3
2024-05-09T22:24:11.094Z,8.1
2024-05-09T22:29:17.497Z,7.9
2024-05-09T22:34:23.638Z,7.6
2024-05-09T22:39:30.022Z,7.4
2024-05-09T22:44:37.313Z,7.2
2024-05-09T22:49:42.537Z,7.1
2024-05-09T22:54:48.819Z,7.1
2024-05-09T22:59:55.178Z,7.1
2024-05-09T23:05:01.246Z,7.1
2024-05-09T23:10:07.558Z,7.2
2024-05-09T23:15:13.797Z,7.4
2024-05-09T23:20:20.091Z,7.3
2024-05-09T23:25:26.378Z,7.1
2024-05-09T23:30:32.665Z,7.1
2024-05-09T23:35:38.956Z,7.1
2024-05-09T23:40:45.194Z,7.2
2024-05-09T23:45:51.671Z,7.3
2024-05-09T23:50:57.932Z,7.3
2024-05-09T23:56:04.027Z,7.3
